Airfield :
LOGIN :

Register | Disclaimer

   EN    FR    IT 

 










Legend :    VFR   Marginal VFR   IFR   Intensive IFR   Very Intensive IFR
Visi :
Ceiling :
>= 8 km
>= 3000ft
5 to 8 km
1000 to 3000 ft
1500m to 5 km
500 to 1000 ft
800 to 1500m
200 to 500 ft
< 800m
< 200 ft
Symbols :   Thunderstorms  Fog  Heavy snow  Heavy precipitations  Wind > 20 kt
SIGMETs :     Misc.  Thunderstorms  Icing  Turbulence  Mountain Waves  Volcanic Ashes







- Airport Elevation : 0 ft


ENQC - Troll C Platform

CURRENT METAR :
  • 172320Z AUTO 29011KT 9999NDV -SHRASN BKN013/// BKN091/// 01/M01 Q1009 W///S5

EXPIRED METARs :
  • 172250Z AUTO 30015KT 270V340 6000NDV -SHRASN SCT018/// BKN047/// 02/M02 Q1009 W///S6
  • 172220Z AUTO 31010KT 9999NDV -RASN FEW010/// BKN052/// 02/M04 Q1009 W///S6
  • 172150Z AUTO 31014KT 9999NDV FEW040/// 03/M06 Q1009 W///S6
  • 172120Z AUTO 31013KT 9999NDV NCD 03/M06 Q1009 W///S6
  • 172050Z AUTO 32014KT 9999NDV NCD 03/M06 Q1009 W///S6

TAF N/A
No reported NOTAMs for that airfield.



MET'MAP, your aeronautical weather chart ! - Copyright ORBIFLY December 2007 - Disclaimer

ORBIFLY MET'MAP TEAM :

Programming & Development : Alexandra Zaïnal
Concept & Development : Baudouin d'Aumeries
Co-Development & Prog : Marc-Olivier Méhu
Technical & hardware support : Manuel Goepfert

Contact : metmap@orbifly.com




SOURCES & CREDITS :

   NOAA